Hammondsville, Vermont
Current Conditions -  °F | °C
As of 8:54 PM on Wednesday 26 Nov 2014 (Local Time) from KVSF Reporting Station
Light Snow Light Snow  
Wind Chill: 26°   Ceiling: 2900
Heat Index: 32°   Visibility: 4mi
Dew Point: 27°   Wind: 7mph
Humidity: 82%   Direction: 360°N
Pressure: 29.88"   Gusts: 22mph
Location:  43.4984°N, 72.5943°W
Report Text: KVSF 270154Z AUTO 36006G19KT 4SM -SN FEW022 OVC029 00/M03 A2988 RMK AO2 SLP125 P0002 T00001028
Loading
Personal Weather Stations






























Interactive Weather Map New forecast layout! Learn more

10-Day Weather Forecast

Advertisements
Track Severe Weather on mobile